sensor_id;sensor_type;location;lat;lon;timestamp;pressure;altitude;pressure_sealevel;temperature;humidity
71778;BME280;59609;52.430;4.668;2024-03-22T00:02:09;102037.59;;;10.05;100.00
71778;BME280;59609;52.430;4.668;2024-03-22T00:04:35;102031.38;;;10.03;100.00
71778;BME280;59609;52.430;4.668;2024-03-22T00:07:01;101975.69;;;9.79;100.00
71778;BME280;59609;52.430;4.668;2024-03-22T00:09:26;102016.84;;;10.01;100.00
71778;BME280;59609;52.430;4.668;2024-03-22T00:11:51;101999.44;;;10.01;100.00
71778;BME280;59609;52.430;4.668;2024-03-22T00:14:17;102013.44;;;10.09;100.00
71778;BME280;59609;52.430;4.668;2024-03-22T00:16:42;102011.66;;;10.08;100.00
71778;BME280;59609;52.430;4.668;2024-03-22T00:19:07;101993.09;;;10.00;100.00
71778;BME280;59609;52.430;4.668;2024-03-22T00:21:33;102000.22;;;10.03;100.00
71778;BME280;59609;52.430;4.668;2024-03-22T00:23:58;101994.09;;;9.99;100.00
71778;BME280;59609;52.430;4.668;2024-03-22T00:26:26;101982.47;;;9.96;100.00
71778;BME280;59609;52.430;4.668;2024-03-22T00:28:51;101991.34;;;9.99;100.00
71778;BME280;59609;52.430;4.668;2024-03-22T00:31:18;101984.63;;;9.92;100.00
71778;BME280;59609;52.430;4.668;2024-03-22T00:33:43;101980.59;;;9.96;100.00
71778;BME280;59609;52.430;4.668;2024-03-22T00:36:09;101999.72;;;9.98;100.00
71778;BME280;59609;52.430;4.668;2024-03-22T00:38:35;101991.88;;;9.93;100.00
71778;BME280;59609;52.430;4.668;2024-03-22T00:41:00;101993.75;;;9.93;100.00
71778;BME280;59609;52.430;4.668;2024-03-22T00:43:26;101974.16;;;9.86;100.00
71778;BME280;59609;52.430;4.668;2024-03-22T00:45:51;101999.44;;;10.01;100.00
71778;BME280;59609;52.430;4.668;2024-03-22T00:48:17;102010.47;;;10.01;100.00
71778;BME280;59609;52.430;4.668;2024-03-22T00:50:43;102005.22;;;9.98;100.00
71778;BME280;59609;52.430;4.668;2024-03-22T00:53:09;101993.75;;;9.93;100.00
71778;BME280;59609;52.430;4.668;2024-03-22T00:55:35;102002.47;;;9.98;100.00
71778;BME280;59609;52.430;4.668;2024-03-22T00:58:00;101970.31;;;9.77;100.00
71778;BME280;59609;52.430;4.668;2024-03-22T01:00:26;102002.34;;;9.99;100.00
71778;BME280;59609;52.430;4.668;2024-03-22T01:02:52;101992.75;;;9.94;100.00
71778;BME280;59609;52.430;4.668;2024-03-22T01:05:17;101993.88;;;9.91;100.00
71778;BME280;59609;52.430;4.668;2024-03-22T01:07:43;101980.53;;;9.87;100.00
71778;BME280;59609;52.430;4.668;2024-03-22T01:10:08;101993.03;;;9.91;100.00
71778;BME280;59609;52.430;4.668;2024-03-22T01:12:34;101967.16;;;9.82;100.00
71778;BME280;59609;52.430;4.668;2024-03-22T01:15:00;101974.81;;;9.78;100.00
71778;BME280;59609;52.430;4.668;2024-03-22T01:17:25;101979.34;;;9.79;100.00
71778;BME280;59609;52.430;4.668;2024-03-22T01:19:51;101999.06;;;9.84;100.00
71778;BME280;59609;52.430;4.668;2024-03-22T01:22:17;101971.63;;;9.73;100.00
71778;BME280;59609;52.430;4.668;2024-03-22T01:24:46;101966.63;;;9.67;100.00
71778;BME280;59609;52.430;4.668;2024-03-22T01:27:11;101972.00;;;9.69;100.00
71778;BME280;59609;52.430;4.668;2024-03-22T01:29:37;101992.09;;;9.80;100.00
71778;BME280;59609;52.430;4.668;2024-03-22T01:32:03;101984.84;;;9.79;100.00
71778;BME280;59609;52.430;4.668;2024-03-22T01:34:28;101955.28;;;9.61;100.00
71778;BME280;59609;52.430;4.668;2024-03-22T01:36:54;101963.63;;;9.70;100.00
71778;BME280;59609;52.430;4.668;2024-03-22T01:39:20;101941.78;;;9.58;100.00
71778;BME280;59609;52.430;4.668;2024-03-22T01:41:49;101968.00;;;9.73;100.00
71778;BME280;59609;52.430;4.668;2024-03-22T01:44:15;101965.97;;;9.75;100.00
71778;BME280;59609;52.430;4.668;2024-03-22T01:46:41;101975.59;;;9.80;100.00
71778;BME280;59609;52.430;4.668;2024-03-22T01:49:09;101922.97;;;9.53;100.00
71778;BME280;59609;52.430;4.668;2024-03-22T01:51:34;101909.88;;;9.46;100.00
71778;BME280;59609;52.430;4.668;2024-03-22T01:54:01;101954.63;;;9.68;100.00
71778;BME280;59609;52.430;4.668;2024-03-22T01:56:27;101956.44;;;9.79;100.00
71778;BME280;59609;52.430;4.668;2024-03-22T01:58:54;101952.69;;;9.80;100.00
71778;BME280;59609;52.430;4.668;2024-03-22T02:01:20;101915.66;;;9.63;100.00
71778;BME280;59609;52.430;4.668;2024-03-22T02:03:45;101945.53;;;9.77;100.00
71778;BME280;59609;52.430;4.668;2024-03-22T02:06:10;101940.19;;;9.76;100.00
71778;BME280;59609;52.430;4.668;2024-03-22T02:08:36;101938.06;;;9.79;100.00
71778;BME280;59609;52.430;4.668;2024-03-22T02:13:36;101908.44;;;9.72;100.00
71778;BME280;59609;52.430;4.668;2024-03-22T02:16:05;101899.75;;;9.67;100.00
71778;BME280;59609;52.430;4.668;2024-03-22T02:18:30;101907.78;;;9.79;100.00
71778;BME280;59609;52.430;4.668;2024-03-22T02:20:59;101897.75;;;9.78;100.00
71778;BME280;59609;52.430;4.668;2024-03-22T02:23:35;101899.63;;;9.78;100.00
71778;BME280;59609;52.430;4.668;2024-03-22T02:26:01;101882.13;;;9.79;100.00
71778;BME280;59609;52.430;4.668;2024-03-22T02:28:26;101838.13;;;9.58;100.00
71778;BME280;59609;52.430;4.668;2024-03-22T02:30:52;101839.72;;;9.61;100.00
71778;BME280;59609;52.430;4.668;2024-03-22T02:33:17;101856.09;;;9.62;100.00
71778;BME280;59609;52.430;4.668;2024-03-22T02:35:45;101867.31;;;9.70;100.00
71778;BME280;59609;52.430;4.668;2024-03-22T02:38:11;101839.88;;;9.59;100.00
71778;BME280;59609;52.430;4.668;2024-03-22T02:40:36;101861.94;;;9.69;100.00
71778;BME280;59609;52.430;4.668;2024-03-22T02:43:02;101868.03;;;9.72;100.00
71778;BME280;59609;52.430;4.668;2024-03-22T02:45:27;101859.31;;;9.67;100.00
71778;BME280;59609;52.430;4.668;2024-03-22T02:47:52;101849.78;;;9.71;100.00
71778;BME280;59609;52.430;4.668;2024-03-22T02:50:18;101852.41;;;9.73;100.00
71778;BME280;59609;52.430;4.668;2024-03-22T02:52:43;101851.13;;;9.77;100.00
71778;BME280;59609;52.430;4.668;2024-03-22T02:55:08;101860.22;;;9.77;100.00
71778;BME280;59609;52.430;4.668;2024-03-22T02:57:34;101845.75;;;9.75;100.00
71778;BME280;59609;52.430;4.668;2024-03-22T03:00:02;101826.28;;;9.67;100.00
71778;BME280;59609;52.430;4.668;2024-03-22T03:02:28;101838.78;;;9.71;100.00
71778;BME280;59609;52.430;4.668;2024-03-22T03:04:54;101824.00;;;9.72;100.00
71778;BME280;59609;52.430;4.668;2024-03-22T03:07:19;101821.25;;;9.72;100.00
71778;BME280;59609;52.430;4.668;2024-03-22T03:09:44;101819.72;;;9.79;100.00
71778;BME280;59609;52.430;4.668;2024-03-22T03:12:10;101793.75;;;9.72;100.00
71778;BME280;59609;52.430;4.668;2024-03-22T03:14:35;101799.84;;;9.76;100.00
71778;BME280;59609;52.430;4.668;2024-03-22T03:17:00;101801.31;;;9.80;100.00
71778;BME280;59609;52.430;4.668;2024-03-22T03:19:26;101775.63;;;9.70;100.00
71778;BME280;59609;52.430;4.668;2024-03-22T03:21:51;101788.53;;;9.69;100.00
71778;BME280;59609;52.430;4.668;2024-03-22T03:24:16;101801.75;;;9.85;100.00
71778;BME280;59609;52.430;4.668;2024-03-22T03:26:41;101794.63;;;9.73;100.00
71778;BME280;59609;52.430;4.668;2024-03-22T03:29:07;101794.19;;;9.77;100.00
71778;BME280;59609;52.430;4.668;2024-03-22T03:31:32;101787.84;;;9.77;100.00
71778;BME280;59609;52.430;4.668;2024-03-22T03:33:58;101783.63;;;9.73;100.00
71778;BME280;59609;52.430;4.668;2024-03-22T03:36:24;101795.53;;;9.83;100.00
71778;BME280;59609;52.430;4.668;2024-03-22T03:38:49;101797.25;;;9.84;100.00
71778;BME280;59609;52.430;4.668;2024-03-22T03:41:14;101794.66;;;9.82;100.00
71778;BME280;59609;52.430;4.668;2024-03-22T03:43:40;101775.50;;;9.81;100.00
71778;BME280;59609;52.430;4.668;2024-03-22T03:46:05;101783.50;;;9.84;100.00
71778;BME280;59609;52.430;4.668;2024-03-22T03:48:30;101793.50;;;9.85;100.00
71778;BME280;59609;52.430;4.668;2024-03-22T03:50:56;101788.00;;;9.85;100.00
71778;BME280;59609;52.430;4.668;2024-03-22T03:53:24;101769.41;;;9.77;100.00
71778;BME280;59609;52.430;4.668;2024-03-22T03:55:50;101792.50;;;9.86;100.00
71778;BME280;59609;52.430;4.668;2024-03-22T03:58:15;101771.16;;;9.78;100.00
71778;BME280;59609;52.430;4.668;2024-03-22T04:00:43;101787.00;;;9.86;100.00
71778;BME280;59609;52.430;4.668;2024-03-22T04:03:08;101793.22;;;9.88;100.00
71778;BME280;59609;52.430;4.668;2024-03-22T04:05:34;101764.38;;;9.82;100.00
71778;BME280;59609;52.430;4.668;2024-03-22T04:07:59;101780.34;;;9.89;100.00
71778;BME280;59609;52.430;4.668;2024-03-22T04:10:25;101761.34;;;9.86;100.00
71778;BME280;59609;52.430;4.668;2024-03-22T04:12:50;101778.47;;;9.89;100.00
71778;BME280;59609;52.430;4.668;2024-03-22T04:15:15;101773.63;;;9.81;100.00
71778;BME280;59609;52.430;4.668;2024-03-22T04:17:41;101772.75;;;9.81;100.00
71778;BME280;59609;52.430;4.668;2024-03-22T04:20:06;101768.28;;;9.80;100.00
71778;BME280;59609;52.430;4.668;2024-03-22T04:22:34;101793.97;;;9.90;100.00
71778;BME280;59609;52.430;4.668;2024-03-22T04:24:59;101765.66;;;9.78;100.00
71778;BME280;59609;52.430;4.668;2024-03-22T04:27:24;101767.25;;;9.81;100.00
71778;BME280;59609;52.430;4.668;2024-03-22T04:29:50;101787.56;;;9.80;100.00
71778;BME280;59609;52.430;4.668;2024-03-22T04:32:15;101773.19;;;9.76;100.00
71778;BME280;59609;52.430;4.668;2024-03-22T04:34:44;101793.66;;;9.83;100.00
71778;BME280;59609;52.430;4.668;2024-03-22T04:37:09;101788.00;;;9.85;100.00
71778;BME280;59609;52.430;4.668;2024-03-22T04:39:38;101785.41;;;9.83;100.00
71778;BME280;59609;52.430;4.668;2024-03-22T04:42:04;101770.16;;;9.79;100.00
71778;BME280;59609;52.430;4.668;2024-03-22T04:44:29;101778.00;;;9.84;100.00
71778;BME280;59609;52.430;4.668;2024-03-22T04:46:55;101772.16;;;9.77;100.00
71778;BME280;59609;52.430;4.668;2024-03-22T04:49:20;101767.41;;;9.79;100.00
71778;BME280;59609;52.430;4.668;2024-03-22T04:51:46;101761.63;;;9.82;100.00
71778;BME280;59609;52.430;4.668;2024-03-22T04:54:11;101773.06;;;9.88;100.00
71778;BME280;59609;52.430;4.668;2024-03-22T04:56:36;101762.22;;;9.86;100.00
71778;BME280;59609;52.430;4.668;2024-03-22T04:59:02;101736.38;;;9.68;100.00
71778;BME280;59609;52.430;4.668;2024-03-22T05:01:27;101747.56;;;9.76;100.00
71778;BME280;59609;52.430;4.668;2024-03-22T05:03:52;101752.91;;;9.77;100.00
71778;BME280;59609;52.430;4.668;2024-03-22T05:06:18;101767.84;;;9.84;100.00
71778;BME280;59609;52.430;4.668;2024-03-22T05:08:43;101732.50;;;9.70;100.00
71778;BME280;59609;52.430;4.668;2024-03-22T05:11:09;101755.13;;;9.83;100.00
71778;BME280;59609;52.430;4.668;2024-03-22T05:13:34;101747.88;;;9.82;100.00
71778;BME280;59609;52.430;4.668;2024-03-22T05:16:00;101755.72;;;9.87;100.00
71778;BME280;59609;52.430;4.668;2024-03-22T05:18:25;101741.66;;;9.80;100.00
71778;BME280;59609;52.430;4.668;2024-03-22T05:20:50;101738.16;;;9.88;100.00
71778;BME280;59609;52.430;4.668;2024-03-22T05:23:16;101732.81;;;9.77;100.00
71778;BME280;59609;52.430;4.668;2024-03-22T05:25:42;101716.13;;;9.78;100.00
71778;BME280;59609;52.430;4.668;2024-03-22T05:28:07;101731.66;;;9.89;100.00
71778;BME280;59609;52.430;4.668;2024-03-22T05:30:33;101728.78;;;9.91;100.00
71778;BME280;59609;52.430;4.668;2024-03-22T05:32:58;101731.66;;;9.89;100.00
71778;BME280;59609;52.430;4.668;2024-03-22T05:35:24;101729.50;;;9.93;100.00
71778;BME280;59609;52.430;4.668;2024-03-22T05:37:49;101732.53;;;9.90;100.00
71778;BME280;59609;52.430;4.668;2024-03-22T05:40:15;101738.63;;;9.93;100.00
71778;BME280;59609;52.430;4.668;2024-03-22T05:42:41;101724.56;;;9.87;100.00
71778;BME280;59609;52.430;4.668;2024-03-22T05:45:07;101716.44;;;9.85;100.00
71778;BME280;59609;52.430;4.668;2024-03-22T05:47:33;101717.31;;;9.86;100.00
71778;BME280;59609;52.430;4.668;2024-03-22T05:49:59;101734.00;;;9.94;100.00
71778;BME280;59609;52.430;4.668;2024-03-22T05:52:25;101726.75;;;9.93;100.00
71778;BME280;59609;52.430;4.668;2024-03-22T05:54:50;101713.69;;;9.85;100.00
71778;BME280;59609;52.430;4.668;2024-03-22T05:57:16;101713.13;;;9.91;100.00
71778;BME280;59609;52.430;4.668;2024-03-22T05:59:41;101710.81;;;9.87;100.00
71778;BME280;59609;52.430;4.668;2024-03-22T06:02:07;101714.28;;;9.89;100.00
71778;BME280;59609;52.430;4.668;2024-03-22T06:04:33;101713.41;;;9.98;100.00
71778;BME280;59609;52.430;4.668;2024-03-22T06:07:00;101723.00;;;10.03;100.00
71778;BME280;59609;52.430;4.668;2024-03-22T06:09:28;101696.91;;;9.98;100.00
71778;BME280;59609;52.430;4.668;2024-03-22T06:12:03;101719.38;;;10.03;100.00
71778;BME280;59609;52.430;4.668;2024-03-22T06:14:29;101714.59;;;10.05;100.00
71778;BME280;59609;52.430;4.668;2024-03-22T06:16:54;101712.59;;;10.07;100.00
71778;BME280;59609;52.430;4.668;2024-03-22T06:19:19;101717.81;;;10.10;100.00
71778;BME280;59609;52.430;4.668;2024-03-22T06:21:45;101719.53;;;10.11;100.00
71778;BME280;59609;52.430;4.668;2024-03-22T06:24:10;101716.94;;;10.09;100.00
71778;BME280;59609;52.430;4.668;2024-03-22T06:26:35;101713.00;;;10.12;100.00
71778;BME280;59609;52.430;4.668;2024-03-22T06:29:01;101708.28;;;10.14;100.00
71778;BME280;59609;52.430;4.668;2024-03-22T06:31:27;101698.81;;;10.07;100.00
71778;BME280;59609;52.430;4.668;2024-03-22T06:33:53;101687.81;;;10.07;100.00
71778;BME280;59609;52.430;4.668;2024-03-22T06:36:18;101704.22;;;10.18;100.00
71778;BME280;59609;52.430;4.668;2024-03-22T06:38:44;101707.25;;;10.15;100.00
71778;BME280;59609;52.430;4.668;2024-03-22T06:41:09;101706.25;;;10.16;100.00
71778;BME280;59609;52.430;4.668;2024-03-22T06:43:34;101707.84;;;10.18;100.00
71778;BME280;59609;52.430;4.668;2024-03-22T06:46:00;101701.75;;;10.15;100.00
71778;BME280;59609;52.430;4.668;2024-03-22T06:48:25;101700.75;;;10.16;100.00
71778;BME280;59609;52.430;4.668;2024-03-22T06:50:50;101708.28;;;10.14;100.00
71778;BME280;59609;52.430;4.668;2024-03-22T06:53:16;101706.50;;;10.03;100.00
71778;BME280;59609;52.430;4.668;2024-03-22T06:55:41;101709.25;;;10.03;100.00
71778;BME280;59609;52.430;4.668;2024-03-22T06:58:07;101692.84;;;9.92;100.00
71778;BME280;59609;52.430;4.668;2024-03-22T07:00:32;101696.31;;;9.94;100.00
71778;BME280;59609;52.430;4.668;2024-03-22T07:03:01;101697.03;;;9.87;100.00
71778;BME280;59609;52.430;4.668;2024-03-22T07:05:27;101699.78;;;9.87;100.00
71778;BME280;59609;52.430;4.668;2024-03-22T07:07:53;101700.09;;;9.83;100.00
71778;BME280;59609;52.430;4.668;2024-03-22T07:10:21;101695.69;;;9.71;100.00
71778;BME280;59609;52.430;4.668;2024-03-22T07:12:48;101689.88;;;9.65;100.00
71778;BME280;59609;52.430;4.668;2024-03-22T07:15:13;101704.81;;;9.72;100.00
71778;BME280;59609;52.430;4.668;2024-03-22T07:17:39;101691.03;;;9.62;100.00
71778;BME280;59609;52.430;4.668;2024-03-22T07:20:05;101689.28;;;9.61;100.00
71778;BME280;59609;52.430;4.668;2024-03-22T07:22:32;101709.91;;;9.76;100.00
71778;BME280;59609;52.430;4.668;2024-03-22T07:24:58;101705.56;;;9.74;100.00
71778;BME280;59609;52.430;4.668;2024-03-22T07:27:24;101669.00;;;9.53;100.00
71778;BME280;59609;52.430;4.668;2024-03-22T07:29:55;101707.44;;;9.73;100.00
71778;BME280;59609;52.430;4.668;2024-03-22T07:32:21;101699.03;;;9.75;100.00
71778;BME280;59609;52.430;4.668;2024-03-22T07:34:47;101711.78;;;9.76;100.00
71778;BME280;59609;52.430;4.668;2024-03-22T07:37:12;101700.88;;;9.65;100.00
71778;BME280;59609;52.430;4.668;2024-03-22T07:39:38;101708.44;;;9.72;100.00
71778;BME280;59609;52.430;4.668;2024-03-22T07:42:03;101710.03;;;9.75;100.00
71778;BME280;59609;52.430;4.668;2024-03-22T07:44:29;101720.06;;;9.86;100.00
71778;BME280;59609;52.430;4.668;2024-03-22T07:46:54;101712.97;;;9.83;100.00
71778;BME280;59609;52.430;4.668;2024-03-22T07:49:20;101699.78;;;9.77;100.00
71778;BME280;59609;52.430;4.668;2024-03-22T07:51:45;101713.09;;;9.81;100.00
71778;BME280;59609;52.430;4.668;2024-03-22T07:54:11;101700.06;;;9.74;100.00
71778;BME280;59609;52.430;4.668;2024-03-22T07:56:37;101696.84;;;9.69;100.00
71778;BME280;59609;52.430;4.668;2024-03-22T07:59:02;101673.06;;;9.58;100.00
71778;BME280;59609;52.430;4.668;2024-03-22T08:01:28;101720.34;;;9.82;100.00
71778;BME280;59609;52.430;4.668;2024-03-22T08:03:53;101724.09;;;9.81;100.00
71778;BME280;59609;52.430;4.668;2024-03-22T08:06:19;101719.63;;;9.80;100.00
71778;BME280;59609;52.430;4.668;2024-03-22T08:08:45;101710.91;;;9.75;100.00
71778;BME280;59609;52.430;4.668;2024-03-22T08:11:10;101728.88;;;9.79;100.00
71778;BME280;59609;52.430;4.668;2024-03-22T08:13:36;101711.19;;;9.72;100.00
71778;BME280;59609;52.430;4.668;2024-03-22T08:16:01;101710.47;;;9.70;100.00
71778;BME280;59609;52.430;4.668;2024-03-22T08:18:27;101730.47;;;9.82;100.00
71778;BME280;59609;52.430;4.668;2024-03-22T08:20:52;101704.13;;;9.79;100.00
71778;BME280;59609;52.430;4.668;2024-03-22T08:23:18;101714.56;;;9.86;100.00
71778;BME280;59609;52.430;4.668;2024-03-22T08:25:45;101721.53;;;9.90;100.00
71778;BME280;59609;52.430;4.668;2024-03-22T08:28:11;101685.72;;;9.70;100.00
71778;BME280;59609;52.430;4.668;2024-03-22T08:30:38;101708.94;;;9.87;100.00
71778;BME280;59609;52.430;4.668;2024-03-22T08:33:04;101695.88;;;9.79;100.00
71778;BME280;59609;52.430;4.668;2024-03-22T08:35:30;101695.28;;;9.86;100.00
71778;BME280;59609;52.430;4.668;2024-03-22T08:37:56;101691.66;;;9.85;100.00
71778;BME280;59609;52.430;4.668;2024-03-22T08:40:22;101704.13;;;9.79;100.00
71778;BME280;59609;52.430;4.668;2024-03-22T08:42:48;101671.06;;;9.60;100.00
71778;BME280;59609;52.430;4.668;2024-03-22T08:45:13;101684.97;;;9.68;100.00
71778;BME280;59609;52.430;4.668;2024-03-22T08:47:39;101718.91;;;9.88;100.00
71778;BME280;59609;52.430;4.668;2024-03-22T08:50:06;101715.28;;;9.88;100.00
71778;BME280;59609;52.430;4.668;2024-03-22T08:52:31;101715.72;;;9.83;100.00
71778;BME280;59609;52.430;4.668;2024-03-22T08:55:00;101709.34;;;9.82;100.00
71778;BME280;59609;52.430;4.668;2024-03-22T08:57:26;101713.97;;;9.82;100.00
71778;BME280;59609;52.430;4.668;2024-03-22T08:59:54;101710.50;;;9.80;100.00
71778;BME280;59609;52.430;4.668;2024-03-22T09:02:21;101718.31;;;9.84;100.00
71778;BME280;59609;52.430;4.668;2024-03-22T09:04:47;101707.88;;;9.78;100.00
71778;BME280;59609;52.430;4.668;2024-03-22T09:07:14;101708.88;;;9.77;100.00
71778;BME280;59609;52.430;4.668;2024-03-22T09:09:39;101701.91;;;9.64;100.00
71778;BME280;59609;52.430;4.668;2024-03-22T09:12:06;101715.97;;;9.70;100.00
71778;BME280;59609;52.430;4.668;2024-03-22T09:14:31;101721.16;;;9.64;100.00
71778;BME280;59609;52.430;4.668;2024-03-22T09:16:56;101721.72;;;9.67;100.00
71778;BME280;59609;52.430;4.668;2024-03-22T09:19:22;101712.03;;;9.63;100.00
71778;BME280;59609;52.430;4.668;2024-03-22T09:21:48;101711.75;;;9.66;100.00
71778;BME280;59609;52.430;4.668;2024-03-22T09:24:13;101718.44;;;9.73;100.00
71778;BME280;59609;52.430;4.668;2024-03-22T09:26:39;101710.19;;;9.73;100.00
71778;BME280;59609;52.430;4.668;2024-03-22T09:29:04;101724.06;;;9.72;100.00
71778;BME280;59609;52.430;4.668;2024-03-22T09:31:30;101723.47;;;9.68;100.00
71778;BME280;59609;52.430;4.668;2024-03-22T09:33:59;101708.53;;;9.61;100.00
71778;BME280;59609;52.430;4.668;2024-03-22T09:36:24;101696.81;;;9.59;100.00
71778;BME280;59609;52.430;4.668;2024-03-22T09:38:51;101713.22;;;9.70;100.00
71778;BME280;59609;52.430;4.668;2024-03-22T09:41:23;101711.59;;;9.68;100.00
71778;BME280;59609;52.430;4.668;2024-03-22T09:43:51;101700.16;;;9.63;100.00
71778;BME280;59609;52.430;4.668;2024-03-22T09:46:18;101696.50;;;9.53;100.00
71778;BME280;59609;52.430;4.668;2024-03-22T09:48:44;101702.31;;;9.59;100.00
71778;BME280;59609;52.430;4.668;2024-03-22T09:51:10;101686.78;;;9.49;100.00
71778;BME280;59609;52.430;4.668;2024-03-22T09:53:37;101710.56;;;9.59;100.00
71778;BME280;59609;52.430;4.668;2024-03-22T09:56:02;101698.38;;;9.52;100.00
71778;BME280;59609;52.430;4.668;2024-03-22T09:58:27;101709.84;;;9.57;100.00
71778;BME280;59609;52.430;4.668;2024-03-22T10:00:53;101711.56;;;9.58;100.00
71778;BME280;59609;52.430;4.668;2024-03-22T10:03:25;101711.72;;;9.57;100.00
71778;BME280;59609;52.430;4.668;2024-03-22T10:05:50;101693.16;;;9.49;100.00
71778;BME280;59609;52.430;4.668;2024-03-22T10:08:16;101713.31;;;9.59;100.00
71778;BME280;59609;52.430;4.668;2024-03-22T10:10:41;101706.34;;;9.55;100.00
71778;BME280;59609;52.430;4.668;2024-03-22T10:13:06;101701.59;;;9.57;100.00
71778;BME280;59609;52.430;4.668;2024-03-22T10:15:32;101700.84;;;9.55;100.00
71778;BME280;59609;52.430;4.668;2024-03-22T10:17:57;101707.25;;;9.65;100.00
71778;BME280;59609;52.430;4.668;2024-03-22T10:20:23;101714.22;;;9.69;100.00
71778;BME280;59609;52.430;4.668;2024-03-22T10:22:55;101700.84;;;9.55;100.00
71778;BME280;59609;52.430;4.668;2024-03-22T10:25:20;101713.03;;;9.62;100.00
71778;BME280;59609;52.430;4.668;2024-03-22T10:27:46;101713.47;;;9.67;100.00
71778;BME280;59609;52.430;4.668;2024-03-22T10:30:12;101698.84;;;9.57;100.00
71778;BME280;59609;52.430;4.668;2024-03-22T10:32:40;101711.00;;;9.64;100.00
71778;BME280;59609;52.430;4.668;2024-03-22T10:35:05;101713.47;;;9.67;100.00
71778;BME280;59609;52.430;4.668;2024-03-22T10:37:32;101699.00;;;9.65;100.00
71778;BME280;59609;52.430;4.668;2024-03-22T10:40:01;101702.81;;;9.74;100.00
71778;BME280;59609;52.430;4.668;2024-03-22T10:42:35;101708.78;;;9.89;100.00
71778;BME280;59609;52.430;4.668;2024-03-22T10:45:02;101711.41;;;9.90;100.00
71778;BME280;59609;52.430;4.668;2024-03-22T10:47:30;101706.00;;;9.89;100.00
71778;BME280;59609;52.430;4.668;2024-03-22T10:53:01;101710.06;;;9.94;100.00
71778;BME280;59609;52.430;4.668;2024-03-22T10:55:33;101704.31;;;9.97;100.00
71778;BME280;59609;52.430;4.668;2024-03-22T10:57:59;101672.00;;;9.90;100.00
71778;BME280;59609;52.430;4.668;2024-03-22T11:00:33;101695.03;;;10.08;100.00
71778;BME280;59609;52.430;4.668;2024-03-22T11:02:59;101685.63;;;10.10;100.00
71778;BME280;59609;52.430;4.668;2024-03-22T11:05:26;101690.91;;;10.23;100.00
71778;BME280;59609;52.430;4.668;2024-03-22T11:08:02;101694.94;;;10.19;100.00
71778;BME280;59609;52.430;4.668;2024-03-22T11:10:29;101674.94;;;10.17;100.00
71778;BME280;59609;52.430;4.668;2024-03-22T11:12:55;101683.06;;;10.28;100.00
71778;BME280;59609;52.430;4.668;2024-03-22T11:15:22;101680.31;;;10.47;100.00
71778;BME280;59609;52.430;4.668;2024-03-22T11:17:47;101654.38;;;10.40;100.00
71778;BME280;59609;52.430;4.668;2024-03-22T11:20:12;101667.25;;;10.59;100.00
71778;BME280;59609;52.430;4.668;2024-03-22T11:22:38;101656.81;;;10.62;100.00
71778;BME280;59609;52.430;4.668;2024-03-22T11:25:03;101668.25;;;10.77;100.00
71778;BME280;59609;52.430;4.668;2024-03-22T11:27:29;101666.50;;;10.76;100.00
71778;BME280;59609;52.430;4.668;2024-03-22T11:29:54;101646.34;;;10.66;100.00
71778;BME280;59609;52.430;4.668;2024-03-22T11:32:20;101645.91;;;10.61;100.00
71778;BME280;59609;52.430;4.668;2024-03-22T11:34:46;101647.38;;;10.55;100.00
71778;BME280;59609;52.430;4.668;2024-03-22T11:37:12;101661.44;;;10.52;100.00
71778;BME280;59609;52.430;4.668;2024-03-22T11:39:37;101642.03;;;10.34;100.00
71778;BME280;59609;52.430;4.668;2024-03-22T11:42:06;101645.22;;;10.40;100.00
71778;BME280;59609;52.430;4.668;2024-03-22T11:44:36;101650.16;;;10.36;100.00
71778;BME280;59609;52.430;4.668;2024-03-22T11:47:02;101638.69;;;10.31;100.00
71778;BME280;59609;52.430;4.668;2024-03-22T11:49:28;101648.84;;;10.40;100.00
71778;BME280;59609;52.430;4.668;2024-03-22T11:51:55;101626.81;;;10.40;100.00
71778;BME280;59609;52.430;4.668;2024-03-22T11:54:21;101655.38;;;10.49;100.00
71778;BME280;59609;52.430;4.668;2024-03-22T11:56:47;101648.28;;;10.46;100.00
71778;BME280;59609;52.430;4.668;2024-03-22T11:59:12;101639.72;;;10.49;100.00
71778;BME280;59609;52.430;4.668;2024-03-22T12:01:37;101632.03;;;10.53;100.00
71778;BME280;59609;52.430;4.668;2024-03-22T12:04:03;101637.38;;;10.54;100.00
71778;BME280;59609;52.430;4.668;2024-03-22T12:06:29;101635.66;;;10.53;100.00
71778;BME280;59609;52.430;4.668;2024-03-22T12:08:55;101642.31;;;10.60;100.00
71778;BME280;59609;52.430;4.668;2024-03-22T12:11:20;101647.34;;;10.65;100.00
71778;BME280;59609;52.430;4.668;2024-03-22T12:13:46;101625.34;;;10.55;100.00
71778;BME280;59609;52.430;4.668;2024-03-22T12:16:12;101629.22;;;10.72;100.00
71778;BME280;59609;52.430;4.668;2024-03-22T12:18:37;101641.34;;;10.89;100.00
71778;BME280;59609;52.430;4.668;2024-03-22T12:21:03;101623.66;;;10.81;100.00
71778;BME280;59609;52.430;4.668;2024-03-22T12:23:28;101619.78;;;10.84;100.00
71778;BME280;59609;52.430;4.668;2024-03-22T12:25:53;101618.16;;;10.81;100.00
71778;BME280;59609;52.430;4.668;2024-03-22T12:28:21;101616.28;;;10.82;100.00
71778;BME280;59609;52.430;4.668;2024-03-22T12:30:47;101618.28;;;10.90;100.00
71778;BME280;59609;52.430;4.668;2024-03-22T12:33:12;101632.81;;;10.82;100.00
71778;BME280;59609;52.430;4.668;2024-03-22T12:35:39;101603.63;;;10.89;100.00
71778;BME280;59609;52.430;4.668;2024-03-22T12:38:05;101626.78;;;11.06;100.00
71778;BME280;59609;52.430;4.668;2024-03-22T12:40:30;101622.28;;;11.05;100.00
71778;BME280;59609;52.430;4.668;2024-03-22T12:42:58;101630.88;;;11.02;100.00
71778;BME280;59609;52.430;4.668;2024-03-22T12:45:23;101606.88;;;10.75;100.00
71778;BME280;59609;52.430;4.668;2024-03-22T12:47:49;101613.34;;;10.93;100.00